Time;durP1;ratioP1;P1;durP2;ratioP2;P2;SDS_P1;SDS_P2;PMS_P1;PMS_P2;Temp;Humidity;BMP_temperature;BMP_pressure;BME280_temperature;BME280_humidity;BME280_pressure;Samples;Min_cycle;Max_cycle;Signal;HPM_P1;HPM_P2
2023/10/21 00:01:49;;;;;;;1.33;0.20;;;;;;;5.37;100.00;98988.50;4989732;28;20173;-45
2023/10/21 00:04:15;;;;;;;0.38;0.38;;;;;;;5.35;100.00;98988.56;4989507;28;20205;-46
2023/10/21 00:06:40;;;;;;;0.80;0.35;;;;;;;5.42;100.00;99002.41;4989416;28;20201;-46
2023/10/21 00:09:06;;;;;;;0.43;0.30;;;;;;;5.35;100.00;98993.03;4989880;28;20177;-45
2023/10/21 00:11:31;;;;;;;0.30;0.30;;;;;;;5.35;100.00;98995.69;4990066;28;20204;-46
2023/10/21 00:13:57;;;;;;;0.30;0.30;;;;;;;5.26;100.00;98990.78;4989859;28;20216;-47
2023/10/21 00:16:23;;;;;;;1.65;0.47;;;;;;;5.30;100.00;98990.56;4989743;28;20256;-46
2023/10/21 00:18:49;;;;;;;0.30;0.30;;;;;;;5.27;100.00;98996.03;4989746;28;20569;-45
2023/10/21 00:21:14;;;;;;;2.20;0.40;;;;;;;5.22;100.00;98989.22;4974032;28;20267;-46
2023/10/21 00:23:39;;;;;;;0.52;0.35;;;;;;;5.27;100.00;98993.38;4974158;28;20221;-45
2023/10/21 00:26:06;;;;;;;0.90;0.40;;;;;;;5.28;100.00;98989.78;4989777;28;20191;-45
2023/10/21 00:28:32;;;;;;;0.65;0.52;;;;;;;5.27;100.00;98985.44;4989901;28;20272;-46
2023/10/21 00:31:02;;;;;;;0.77;0.45;;;;;;;5.27;100.00;98987.19;4972717;28;20236;-46
2023/10/21 00:33:27;;;;;;;1.50;0.30;;;;;;;5.29;100.00;98996.84;4974723;28;20189;-48
2023/10/21 00:35:53;;;;;;;0.60;0.60;;;;;;;5.27;100.00;98980.13;4989398;28;20690;-48
2023/10/21 00:38:18;;;;;;;1.77;0.60;;;;;;;5.24;100.00;98987.34;4978735;28;20620;-44
2023/10/21 00:40:55;;;;;;;0.60;0.60;;;;;;;5.24;100.00;98992.66;4989645;28;20177;-45
2023/10/21 00:43:32;;;;;;;0.63;0.63;;;;;;;5.25;100.00;99005.03;4989201;28;20247;-45
2023/10/21 00:46:13;;;;;;;1.20;0.45;;;;;;;5.16;100.00;98999.19;4970259;28;20574;-46
2023/10/21 00:48:39;;;;;;;1.20;0.40;;;;;;;5.16;100.00;98995.69;4987703;28;20193;-46
2023/10/21 00:51:05;;;;;;;0.50;0.50;;;;;;;5.20;100.00;99007.84;4989421;28;20268;-47
2023/10/21 00:53:32;;;;;;;0.43;0.43;;;;;;;5.20;100.00;99018.47;4972897;28;20197;-47
2023/10/21 00:55:59;;;;;;;1.35;0.70;;;;;;;5.16;100.00;99020.44;4973808;28;20209;-47
2023/10/21 00:58:27;;;;;;;0.52;0.52;;;;;;;5.20;100.00;99017.63;4988754;28;20200;-48
2023/10/21 01:00:56;;;;;;;2.72;0.70;;;;;;;5.18;100.00;99007.06;4974814;28;20173;-46
2023/10/21 01:03:22;;;;;;;1.48;0.50;;;;;;;5.20;100.00;99021.13;4989153;28;20219;-46
2023/10/21 01:05:48;;;;;;;0.73;0.63;;;;;;;5.21;100.00;99012.25;4989386;28;20554;-45
2023/10/21 01:08:14;;;;;;;0.88;0.77;;;;;;;5.18;100.00;99015.03;4989209;28;20192;-45
2023/10/21 01:10:40;;;;;;;0.88;0.73;;;;;;;5.21;100.00;99030.84;4975328;28;20193;-48
2023/10/21 01:13:06;;;;;;;0.85;0.85;;;;;;;5.26;100.00;99038.59;4988938;28;20237;-44
2023/10/21 01:15:32;;;;;;;0.85;0.82;;;;;;;5.32;100.00;99030.34;4989023;28;20299;-47
2023/10/21 01:17:57;;;;;;;2.92;0.85;;;;;;;5.32;100.00;99027.69;4989216;28;20197;-46
2023/10/21 01:20:23;;;;;;;1.25;1.02;;;;;;;5.26;100.00;99030.63;4989089;28;20185;-45
2023/10/21 01:22:48;;;;;;;0.90;0.90;;;;;;;5.29;100.00;99022.50;4972556;28;20190;-47
2023/10/21 01:25:14;;;;;;;0.80;0.80;;;;;;;5.28;100.00;99023.44;4989118;28;20291;-46
2023/10/21 01:27:40;;;;;;;0.98;0.98;;;;;;;5.27;100.00;99022.59;4989239;28;20185;-47
2023/10/21 01:30:06;;;;;;;1.33;0.95;;;;;;;5.30;100.00;99035.72;4992180;28;20194;-47
2023/10/21 01:32:32;;;;;;;0.93;0.93;;;;;;;5.33;100.00;99040.88;4971997;28;20336;-46
2023/10/21 01:34:58;;;;;;;0.90;0.90;;;;;;;5.37;100.00;99037.16;4992512;28;20306;-47
2023/10/21 01:37:23;;;;;;;1.50;0.70;;;;;;;5.31;100.00;99041.88;4992690;28;20628;-45
2023/10/21 01:39:49;;;;;;;3.08;1.08;;;;;;;5.32;100.00;99039.16;4992833;28;20173;-45
2023/10/21 01:42:14;;;;;;;1.98;1.35;;;;;;;5.37;100.00;99037.16;4992393;28;20699;-45
2023/10/21 01:44:40;;;;;;;1.45;1.35;;;;;;;5.37;100.00;99038.97;4980890;28;20209;-46
2023/10/21 01:47:06;;;;;;;1.40;1.13;;;;;;;5.36;100.00;99042.56;4991785;28;20185;-44
2023/10/21 01:49:32;;;;;;;1.20;1.20;;;;;;;5.36;100.00;99055.84;4990986;28;20204;-45
2023/10/21 01:51:58;;;;;;;3.05;1.45;;;;;;;5.37;100.00;99039.81;4974782;28;20181;-46
2023/10/21 01:54:24;;;;;;;1.35;1.25;;;;;;;5.37;100.00;99037.16;4976694;28;20220;-46
2023/10/21 01:56:49;;;;;;;1.45;1.17;;;;;;;5.44;100.00;99047.50;4960910;28;20304;-46
2023/10/21 01:59:15;;;;;;;1.98;1.25;;;;;;;5.49;100.00;99067.63;4984595;28;20710;-45
2023/10/21 02:01:41;;;;;;;2.35;1.70;;;;;;;5.41;100.00;99055.63;4976333;28;20193;-45
2023/10/21 02:04:06;;;;;;;2.25;1.33;;;;;;;5.47;100.00;99045.56;4975370;28;20232;-46
2023/10/21 02:06:32;;;;;;;3.83;1.45;;;;;;;5.47;100.00;99050.88;4974687;28;20207;-46
2023/10/21 02:08:57;;;;;;;1.70;1.40;;;;;;;5.56;100.00;99061.09;4992012;28;20227;-45
2023/10/21 02:11:26;;;;;;;3.40;1.50;;;;;;;5.52;100.00;99056.00;4991979;28;20608;-45
2023/10/21 02:13:51;;;;;;;2.40;1.60;;;;;;;5.49;100.00;99042.88;4976012;28;20675;-45
2023/10/21 02:16:17;;;;;;;2.22;1.50;;;;;;;5.46;100.00;99050.94;4973919;28;20185;-48
2023/10/21 02:18:43;;;;;;;2.50;1.80;;;;;;;5.51;100.00;99047.16;4979030;28;20545;-47
2023/10/21 02:21:09;;;;;;;2.47;2.00;;;;;;;5.53;100.00;99063.00;4991690;28;20276;-45
2023/10/21 02:23:35;;;;;;;2.95;1.65;;;;;;;5.51;100.00;99055.13;4991893;28;20247;-46
2023/10/21 02:26:05;;;;;;;2.58;1.70;;;;;;;5.46;100.00;99058.91;4973832;28;20208;-47
2023/10/21 02:28:31;;;;;;;2.53;1.88;;;;;;;5.51;100.00;99068.41;4991627;28;20548;-46
2023/10/21 02:30:57;;;;;;;3.08;2.25;;;;;;;5.49;100.00;99058.78;4978689;28;20190;-45
2023/10/21 02:33:25;;;;;;;2.00;1.85;;;;;;;5.47;100.00;99064.16;4991198;28;20257;-46
2023/10/21 02:35:55;;;;;;;3.03;2.20;;;;;;;5.52;100.00;99059.50;4991560;28;20247;-46
2023/10/21 02:38:22;;;;;;;3.60;2.20;;;;;;;5.48;100.00;99065.03;4991358;28;20185;-48
2023/10/21 02:40:48;;;;;;;2.72;2.30;;;;;;;5.48;100.00;99068.53;4974092;28;20553;-45
2023/10/21 02:43:14;;;;;;;8.60;2.90;;;;;;;5.49;100.00;99072.09;4991121;28;20251;-46
2023/10/21 02:45:40;;;;;;;3.53;2.40;;;;;;;5.51;100.00;99080.81;4991260;28;20603;-46
2023/10/21 02:48:06;;;;;;;3.25;2.13;;;;;;;5.50;100.00;99071.97;4974556;28;20177;-47
2023/10/21 02:50:31;;;;;;;4.22;2.60;;;;;;;5.50;100.00;99079.97;4990999;28;20604;-48
2023/10/21 02:52:57;;;;;;;3.80;2.10;;;;;;;5.52;100.00;99082.56;4975094;28;20197;-47
2023/10/21 02:55:23;;;;;;;2.42;2.22;;;;;;;5.50;100.00;99074.63;4991875;28;20286;-45
2023/10/21 02:57:49;;;;;;;2.40;2.08;;;;;;;5.53;100.00;99078.94;4973507;28;20574;-46
2023/10/21 03:00:21;;;;;;;2.92;2.50;;;;;;;5.49;100.00;99074.72;4967890;28;20189;-44
2023/10/21 03:02:48;;;;;;;4.47;2.35;;;;;;;5.53;100.00;99085.16;4990336;28;20201;-45
2023/10/21 03:05:16;;;;;;;3.40;3.03;;;;;;;5.53;100.00;99081.59;4990852;28;20212;-45
2023/10/21 03:07:43;;;;;;;4.80;2.53;;;;;;;5.57;100.00;99091.16;4990931;28;20557;-47
2023/10/21 03:10:09;;;;;;;2.63;2.42;;;;;;;5.55;100.00;99087.72;4990830;28;20193;-47
2023/10/21 03:12:34;;;;;;;6.47;3.58;;;;;;;5.55;100.00;99083.28;4972590;28;20793;-47
2023/10/21 03:15:00;;;;;;;6.20;3.05;;;;;;;5.58;100.00;99075.16;4990416;28;20246;-48
2023/10/21 03:17:26;;;;;;;3.75;3.25;;;;;;;5.63;100.00;99074.94;4990775;28;20185;-46
2023/10/21 03:19:55;;;;;;;6.40;3.55;;;;;;;5.61;100.00;99076.81;4990284;28;20683;-47
2023/10/21 03:22:21;;;;;;;5.80;3.42;;;;;;;5.64;100.00;99089.09;4973571;28;20177;-47
2023/10/21 03:24:46;;;;;;;4.63;3.28;;;;;;;5.63;100.00;99090.88;4990125;28;20213;-46
2023/10/21 03:27:15;;;;;;;4.93;3.88;;;;;;;5.64;100.00;99100.59;4990428;28;20223;-49
2023/10/21 03:29:40;;;;;;;6.57;4.30;;;;;;;5.70;100.00;99102.94;4990543;28;20308;-46
2023/10/21 03:32:07;;;;;;;6.57;3.95;;;;;;;5.68;100.00;99109.28;4989576;28;20272;-47
2023/10/21 03:34:33;;;;;;;7.40;4.35;;;;;;;5.70;100.00;99094.13;4990372;28;20201;-45
2023/10/21 03:37:02;;;;;;;5.68;4.13;;;;;;;5.71;100.00;99098.53;4990369;28;20324;-47
2023/10/21 03:39:28;;;;;;;6.10;4.60;;;;;;;5.74;100.00;99099.22;4990182;28;20177;-47
2023/10/21 03:41:53;;;;;;;7.95;4.80;;;;;;;5.71;100.00;99093.22;4976649;28;20204;-47
2023/10/21 03:44:19;;;;;;;8.90;4.63;;;;;;;5.72;100.00;99093.09;4990006;28;20255;-45
2023/10/21 03:46:45;;;;;;;9.77;5.40;;;;;;;5.73;100.00;99100.16;4990379;28;20253;-46
2023/10/21 03:49:11;;;;;;;6.68;4.53;;;;;;;5.74;100.00;99101.88;4990134;28;20268;-45
2023/10/21 03:51:37;;;;;;;9.32;4.55;;;;;;;5.75;100.00;99100.97;4989399;28;20228;-46
2023/10/21 03:54:03;;;;;;;7.80;4.60;;;;;;;5.80;100.00;99108.72;4989594;28;20181;-47
2023/10/21 03:56:29;;;;;;;6.13;4.43;;;;;;;5.85;100.00;99111.16;4992323;28;20184;-47
2023/10/21 03:58:55;;;;;;;7.57;5.00;;;;;;;5.76;100.00;99113.31;4990352;28;20185;-47
2023/10/21 04:01:20;;;;;;;7.15;4.80;;;;;;;5.78;100.00;99110.56;4989863;28;20190;-46
2023/10/21 04:03:46;;;;;;;6.47;4.93;;;;;;;5.80;100.00;99113.19;4989301;28;20197;-45
2023/10/21 04:06:13;;;;;;;8.57;5.10;;;;;;;5.80;100.00;99121.16;4989417;28;20188;-46
2023/10/21 04:08:39;;;;;;;9.10;5.18;;;;;;;5.80;100.00;99113.19;4988437;28;20209;-45
2023/10/21 04:11:05;;;;;;;9.55;5.57;;;;;;;5.86;100.00;99121.72;4990178;28;20308;-46
2023/10/21 04:13:31;;;;;;;7.30;4.95;;;;;;;5.85;100.00;99111.16;4989505;28;20185;-46
2023/10/21 04:15:59;;;;;;;6.95;4.53;;;;;;;5.84;100.00;99110.31;4989923;28;20197;-46
2023/10/21 04:18:25;;;;;;;9.98;5.15;;;;;;;5.86;100.00;99118.19;4989243;28;20300;-45
2023/10/21 04:20:50;;;;;;;10.75;5.53;;;;;;;5.96;100.00;99114.19;4989822;28;20185;-46
2023/10/21 04:23:16;;;;;;;9.48;5.75;;;;;;;5.94;100.00;99113.38;4972422;28;20249;-47
2023/10/21 04:25:43;;;;;;;9.77;5.30;;;;;;;5.89;100.00;99123.38;4989791;28;20226;-45
2023/10/21 04:28:08;;;;;;;10.70;5.78;;;;;;;5.93;100.00;99135.59;4988874;28;20185;-44
2023/10/21 04:30:35;;;;;;;9.20;5.28;;;;;;;5.95;100.00;99131.09;4990265;28;20184;-46
2023/10/21 04:33:00;;;;;;;12.80;5.47;;;;;;;5.88;100.00;99137.56;4989144;28;20197;-45
2023/10/21 04:35:26;;;;;;;12.52;5.70;;;;;;;5.87;100.00;99142.03;4989542;28;20201;-47
2023/10/21 04:37:52;;;;;;;11.90;5.57;;;;;;;5.81;100.00;99136.16;4989940;28;20196;-45
2023/10/21 04:40:17;;;;;;;9.63;5.72;;;;;;;5.86;100.00;99136.78;4990090;28;20196;-46
2023/10/21 04:42:43;;;;;;;9.43;6.07;;;;;;;5.84;100.00;99157.25;4973358;28;20174;-46
2023/10/21 04:45:09;;;;;;;9.93;5.78;;;;;;;5.87;100.00;99135.88;4989427;28;20220;-46
2023/10/21 04:47:36;;;;;;;14.25;6.10;;;;;;;5.84;100.00;99139.53;4988595;28;20225;-45
2023/10/21 04:50:01;;;;;;;12.38;6.32;;;;;;;5.85;100.00;99135.94;4974703;28;20256;-47
2023/10/21 04:52:27;;;;;;;12.23;6.43;;;;;;;5.86;100.00;99140.34;4989276;28;20232;-46
2023/10/21 04:54:52;;;;;;;14.40;6.10;;;;;;;5.86;100.00;99142.09;4989235;28;20359;-45
2023/10/21 04:57:18;;;;;;;17.00;6.85;;;;;;;5.87;100.00;99138.53;4989886;28;20185;-45
2023/10/21 04:59:44;;;;;;;12.63;6.63;;;;;;;5.94;100.00;99145.28;4978554;28;20178;-46
2023/10/21 05:02:10;;;;;;;15.07;6.68;;;;;;;5.89;100.00;99142.84;4989189;28;20177;-46
2023/10/21 05:04:36;;;;;;;16.55;7.10;;;;;;;5.87;100.00;99141.19;4990659;28;20205;-46
2023/10/21 05:07:05;;;;;;;13.80;6.72;;;;;;;5.94;100.00;99151.47;4993433;28;20193;-45
2023/10/21 05:09:31;;;;;;;15.82;7.13;;;;;;;5.95;100.00;99155.88;4992579;28;20243;-45
2023/10/21 05:11:57;;;;;;;16.92;7.30;;;;;;;5.97;100.00;99151.34;4993089;28;20184;-46
2023/10/21 05:14:22;;;;;;;12.68;7.35;;;;;;;5.95;100.00;99152.38;4992129;28;20560;-46
2023/10/21 05:16:48;;;;;;;15.52;7.93;;;;;;;5.95;100.00;99152.38;4993082;28;20178;-45
2023/10/21 05:19:13;;;;;;;14.27;7.07;;;;;;;5.98;100.00;99166.34;4992941;28;20187;-46
2023/10/21 05:21:39;;;;;;;11.32;6.30;;;;;;;6.00;100.00;99174.28;4992975;28;20200;-46
2023/10/21 05:24:04;;;;;;;18.88;7.32;;;;;;;6.02;100.00;99177.72;4991771;28;20197;-46
2023/10/21 05:26:30;;;;;;;15.82;8.10;;;;;;;5.99;100.00;99180.50;4992609;28;20212;-47
2023/10/21 05:28:57;;;;;;;15.40;8.25;;;;;;;6.02;100.00;99172.41;4992648;28;20209;-47
2023/10/21 05:31:23;;;;;;;11.52;6.50;;;;;;;6.12;100.00;99186.13;4992672;28;20739;-45
2023/10/21 05:33:49;;;;;;;14.80;7.65;;;;;;;6.06;100.00;99179.31;4992142;28;20190;-46
2023/10/21 05:36:14;;;;;;;13.52;6.95;;;;;;;6.05;100.00;99190.88;4992662;28;20170;-46
2023/10/21 05:38:40;;;;;;;15.50;7.47;;;;;;;6.04;100.00;99188.28;4993166;28;20620;-46
2023/10/21 05:41:05;;;;;;;12.82;7.07;;;;;;;6.11;100.00;99197.72;4993097;28;20173;-45
2023/10/21 05:43:30;;;;;;;12.18;7.05;;;;;;;6.07;100.00;99206.75;4992009;28;20197;-46
2023/10/21 05:45:57;;;;;;;11.40;7.07;;;;;;;6.07;100.00;99196.97;4992098;28;20664;-47
2023/10/21 05:48:23;;;;;;;17.80;7.57;;;;;;;6.06;100.00;99200.59;4992365;28;20185;-48
2023/10/21 05:50:48;;;;;;;14.32;6.80;;;;;;;6.10;100.00;99207.50;4992151;28;20181;-46
2023/10/21 05:53:13;;;;;;;12.35;7.65;;;;;;;6.08;100.00;99217.31;4991942;28;20728;-46
2023/10/21 05:55:41;;;;;;;14.90;7.10;;;;;;;6.08;100.00;99227.97;4985368;28;20209;-46
2023/10/21 05:58:08;;;;;;;14.85;7.57;;;;;;;6.18;100.00;99228.38;4991846;28;20277;-44
2023/10/21 06:00:33;;;;;;;16.60;7.88;;;;;;;6.13;100.00;99236.59;4991303;28;20264;-46
2023/10/21 06:02:59;;;;;;;16.00;6.68;;;;;;;6.11;100.00;99230.47;4992100;28;20613;-47
2023/10/21 06:05:24;;;;;;;13.77;7.43;;;;;;;6.12;100.00;99226.91;4992005;28;20208;-47
2023/10/21 06:07:50;;;;;;;16.05;8.18;;;;;;;6.16;100.00;99240.88;4992296;28;20177;-46
2023/10/21 06:10:16;;;;;;;16.30;8.45;;;;;;;6.20;100.00;99247.78;4992221;28;20552;-46
2023/10/21 06:12:43;;;;;;;22.02;8.52;;;;;;;6.13;100.00;99246.38;4990522;28;20223;-48
2023/10/21 06:15:09;;;;;;;13.82;7.15;;;;;;;6.20;100.00;99245.13;4990782;28;20724;-44
2023/10/21 06:17:34;;;;;;;19.92;8.15;;;;;;;6.20;100.00;99242.47;4990275;28;20224;-46
2023/10/21 06:20:00;;;;;;;24.30;8.85;;;;;;;6.22;100.00;99253.06;4990601;28;20281;-45
2023/10/21 06:22:26;;;;;;;18.88;8.30;;;;;;;6.19;100.00;99248.75;4990305;28;20169;-47
2023/10/21 06:24:51;;;;;;;17.38;8.70;;;;;;;6.19;100.00;99243.44;4990173;28;20284;-46
2023/10/21 06:27:17;;;;;;;21.50;8.80;;;;;;;6.24;100.00;99243.22;4974288;28;20742;-48
2023/10/21 06:29:42;;;;;;;17.25;8.93;;;;;;;6.23;100.00;99252.09;4990186;28;20177;-47
2023/10/21 06:32:09;;;;;;;18.95;8.73;;;;;;;6.22;100.00;99253.06;4976251;28;20781;-45
2023/10/21 06:34:35;;;;;;;19.20;8.63;;;;;;;6.24;100.00;99253.84;4990190;28;20207;-46
2023/10/21 06:37:01;;;;;;;18.30;8.70;;;;;;;6.26;100.00;99257.31;4979421;28;20169;-46
2023/10/21 06:39:27;;;;;;;17.75;8.60;;;;;;;6.25;100.00;99256.41;4990926;28;20277;-46
2023/10/21 06:41:52;;;;;;;14.38;8.13;;;;;;;6.29;100.00;99275.78;4991877;28;20257;-46
2023/10/21 06:44:18;;;;;;;17.65;8.30;;;;;;;6.27;100.00;99283.81;4991052;28;20207;-45
2023/10/21 06:46:44;;;;;;;17.83;9.32;;;;;;;6.28;100.00;99280.22;4991368;28;20207;-47
2023/10/21 06:49:09;;;;;;;20.90;10.15;;;;;;;6.29;100.00;99273.13;4991545;28;20234;-45
2023/10/21 06:51:36;;;;;;;22.95;9.80;;;;;;;6.30;100.00;99278.38;4990322;28;20212;-45
2023/10/21 06:54:03;;;;;;;22.92;9.88;;;;;;;6.32;100.00;99272.97;4990729;28;20189;-46
2023/10/21 06:56:28;;;;;;;16.40;9.30;;;;;;;6.35;100.00;99289.66;4989702;28;20272;-45
2023/10/21 06:58:54;;;;;;;18.42;8.45;;;;;;;6.38;100.00;99301.94;4990642;28;20272;-46
2023/10/21 07:01:19;;;;;;;18.42;10.32;;;;;;;6.42;100.00;99308.00;4991241;28;20177;-46
2023/10/21 07:03:45;;;;;;;22.05;9.32;;;;;;;6.43;100.00;99309.72;4990535;28;20636;-46
2023/10/21 07:06:11;;;;;;;19.55;9.40;;;;;;;6.46;100.00;99322.88;4991046;28;20232;-46
2023/10/21 07:08:37;;;;;;;20.38;10.00;;;;;;;6.47;100.00;99312.19;4990927;28;20564;-45
2023/10/21 07:11:02;;;;;;;18.77;9.50;;;;;;;6.48;100.00;99316.56;4991074;28;20178;-45
2023/10/21 07:13:28;;;;;;;17.63;8.65;;;;;;;6.50;100.00;99320.00;4990132;28;20280;-48
2023/10/21 07:15:54;;;;;;;21.70;9.55;;;;;;;6.50;100.00;99324.47;4990843;28;20848;-47
2023/10/21 07:18:20;;;;;;;17.38;9.63;;;;;;;6.51;100.00;99324.38;4991042;28;20202;-45
2023/10/21 07:20:46;;;;;;;16.80;9.57;;;;;;;6.58;100.00;99331.19;4990667;28;20181;-46
2023/10/21 07:23:15;;;;;;;17.85;8.93;;;;;;;6.53;100.00;99327.84;4990407;28;20178;-46
2023/10/21 07:25:41;;;;;;;17.20;9.32;;;;;;;6.59;100.00;99334.69;4990922;28;20209;-46
2023/10/21 07:28:07;;;;;;;21.00;9.80;;;;;;;6.56;100.00;99324.22;4988463;28;20600;-46
2023/10/21 07:30:33;;;;;;;16.33;9.40;;;;;;;6.60;100.00;99349.72;4990642;28;20185;-46
2023/10/21 07:33:00;;;;;;;19.25;10.00;;;;;;;6.64;100.00;99342.47;4975413;28;20174;-46
2023/10/21 07:35:26;;;;;;;21.00;10.07;;;;;;;6.67;100.00;99352.97;4990509;28;20209;-45
2023/10/21 07:37:54;;;;;;;20.88;10.25;;;;;;;6.70;100.00;99360.81;4990720;28;20182;-46
2023/10/21 07:40:20;;;;;;;20.85;10.68;;;;;;;6.68;100.00;99362.69;4990714;28;20182;-45
2023/10/21 07:42:45;;;;;;;19.48;10.13;;;;;;;6.66;100.00;99367.22;4989231;28;20184;-45
2023/10/21 07:45:14;;;;;;;22.52;10.98;;;;;;;6.66;100.00;99375.19;4990234;28;20641;-45
2023/10/21 07:47:41;;;;;;;20.10;10.75;;;;;;;6.69;100.00;99369.72;4989946;28;20252;-46
2023/10/21 07:50:07;;;;;;;18.77;10.88;;;;;;;6.72;100.00;99375.78;4990620;28;20521;-46
2023/10/21 07:52:36;;;;;;;20.90;10.52;;;;;;;6.79;100.00;99384.34;4990183;28;20204;-46
2023/10/21 07:55:03;;;;;;;20.55;10.77;;;;;;;6.84;100.00;99373.47;4991039;28;20221;-45
2023/10/21 07:57:29;;;;;;;19.13;10.48;;;;;;;6.79;100.00;99379.03;4988469;28;20284;-45
2023/10/21 07:59:54;;;;;;;18.13;10.65;;;;;;;6.77;100.00;99383.56;4988039;28;20216;-48
2023/10/21 08:02:21;;;;;;;21.45;10.68;;;;;;;6.75;100.00;99383.59;4987363;28;20213;-46
2023/10/21 08:04:47;;;;;;;21.52;10.90;;;;;;;6.82;100.00;99389.50;4987565;28;20217;-45
2023/10/21 08:07:12;;;;;;;16.67;9.80;;;;;;;6.86;100.00;99404.41;4988377;28;20243;-44
2023/10/21 08:09:38;;;;;;;22.63;11.05;;;;;;;6.84;100.00;99400.97;4986288;28;20573;-45
2023/10/21 08:12:04;;;;;;;20.08;10.70;;;;;;;6.87;100.00;99406.16;4988722;28;20221;-45
2023/10/21 08:14:32;;;;;;;20.95;11.18;;;;;;;6.90;100.00;99411.34;4989301;28;20550;-44
2023/10/21 08:17:00;;;;;;;22.92;11.25;;;;;;;6.91;100.00;99405.09;4989763;28;20296;-44
2023/10/21 08:19:27;;;;;;;24.70;12.07;;;;;;;6.97;100.00;99418.09;4989748;28;20562;-45
2023/10/21 08:21:53;;;;;;;22.35;11.57;;;;;;;6.93;100.00;99418.31;4966534;28;20535;-45
2023/10/21 08:24:18;;;;;;;20.02;11.95;;;;;;;7.06;100.00;99415.94;4989401;28;20213;-44
2023/10/21 08:26:44;;;;;;;21.42;11.57;;;;;;;7.03;100.00;99416.09;4989945;28;20185;-44
2023/10/21 08:29:10;;;;;;;20.75;12.00;;;;;;;7.08;100.00;99420.25;4990176;28;20188;-44
2023/10/21 08:31:35;;;;;;;21.10;11.07;;;;;;;7.13;100.00;99422.75;4990179;28;20659;-45
2023/10/21 08:34:01;;;;;;;28.23;12.68;;;;;;;7.14;100.00;99430.63;4989556;28;20279;-46
2023/10/21 08:36:26;;;;;;;23.30;11.75;;;;;;;7.15;100.00;99431.50;4990084;28;20205;-45
2023/10/21 08:38:52;;;;;;;20.45;11.90;;;;;;;7.20;100.00;99427.69;4992681;28;20181;-44
2023/10/21 08:41:17;;;;;;;21.45;11.68;;;;;;;7.21;100.00;99441.88;4993922;28;20206;-43
2023/10/21 08:43:48;;;;;;;22.25;11.65;;;;;;;7.24;100.00;99441.75;4993375;28;20252;-44
2023/10/21 08:46:15;;;;;;;19.63;11.65;;;;;;;7.23;100.00;99440.84;4993776;28;20189;-44
2023/10/21 08:48:44;;;;;;;22.38;11.77;;;;;;;7.25;100.00;99442.59;4993677;28;20706;-46
2023/10/21 08:51:10;;;;;;;20.40;11.05;;;;;;;7.29;100.00;99442.38;4993616;28;20189;-45
2023/10/21 08:53:39;;;;;;;23.08;11.15;;;;;;;7.29;100.00;99445.03;4992927;28;20186;-45
2023/10/21 08:56:05;;;;;;;19.27;10.55;;;;;;;7.38;100.00;99444.59;4992495;28;20188;-44
2023/10/21 08:58:31;;;;;;;21.83;10.38;;;;;;;7.45;100.00;99455.84;4992337;28;20185;-43
2023/10/21 09:00:58;;;;;;;19.95;11.02;;;;;;;7.37;100.00;99447.34;4991795;28;20209;-45
2023/10/21 09:03:25;;;;;;;20.27;11.27;;;;;;;7.39;100.00;99451.69;4992029;28;20725;-44
2023/10/21 09:06:10;;;;;;;18.90;10.60;;;;;;;7.39;100.00;99454.34;4991400;28;20243;-47
2023/10/21 09:08:36;;;;;;;18.17;10.00;;;;;;;7.40;100.00;99466.72;4989793;28;20272;-45
2023/10/21 09:11:08;;;;;;;19.27;10.20;;;;;;;7.43;100.00;99466.59;4991548;28;20177;-43
2023/10/21 09:13:35;;;;;;;16.23;9.52;;;;;;;7.48;100.00;99490.34;4991306;28;20555;-45
2023/10/21 09:16:17;;;;;;;18.35;9.93;;;;;;;7.49;100.00;99489.41;4992596;28;20197;-45
2023/10/21 09:18:54;;;;;;;19.95;10.38;;;;;;;7.59;100.00;99481.84;4992413;28;20199;-45
2023/10/21 09:21:42;;;;;;;20.02;10.80;;;;;;;7.55;100.00;99489.13;4993094;28;20753;-44
2023/10/21 09:24:19;;;;;;;18.73;10.88;;;;;;;7.56;100.00;99487.31;4992312;28;20205;-45
2023/10/21 09:26:48;;;;;;;17.75;11.02;;;;;;;7.61;100.00;99478.16;4991758;28;20185;-47
2023/10/21 09:29:19;;;;;;;18.08;10.73;;;;;;;7.62;100.00;99489.69;4992794;28;20604;-45
2023/10/21 09:31:47;;;;;;;14.55;9.68;;;;;;;7.67;100.00;99489.47;4992457;28;20690;-44
2023/10/21 09:34:40;;;;;;;19.65;10.30;;;;;;;7.64;100.00;99495.81;4992288;28;20201;-46
2023/10/21 09:37:06;;;;;;;16.33;9.90;;;;;;;7.67;100.00;99492.97;4989257;28;20204;-45
2023/10/21 09:39:33;;;;;;;17.13;10.43;;;;;;;7.69;100.00;99499.09;4991884;28;20276;-45
2023/10/21 09:42:03;;;;;;;16.55;9.75;;;;;;;7.75;100.00;99492.63;4990945;28;20169;-44
2023/10/21 09:44:29;;;;;;;19.52;10.45;;;;;;;7.81;100.00;99489.69;4990988;28;20205;-46
2023/10/21 09:46:56;;;;;;;13.65;9.23;;;;;;;7.91;100.00;99493.59;4991884;28;20284;-45
2023/10/21 09:49:26;;;;;;;19.33;10.13;;;;;;;7.97;100.00;99498.66;4991824;28;20660;-45
2023/10/21 09:52:34;;;;;;;16.55;10.55;;;;;;;8.09;100.00;99498.97;4991648;28;20608;-46
2023/10/21 09:55:07;;;;;;;15.98;9.18;;;;;;;8.19;100.00;99506.44;4929967;29;20422;-47
2023/10/21 09:57:36;;;;;;;15.60;9.68;;;;;;;8.17;100.00;99510.13;4932059;29;20190;-45
2023/10/21 10:00:05;;;;;;;20.23;10.13;;;;;;;8.23;100.00;99499.16;4966112;28;20232;-44
2023/10/21 10:02:31;;;;;;;15.13;10.00;;;;;;;8.12;100.00;99512.19;4976410;28;20173;-45
2023/10/21 10:04:58;;;;;;;12.80;9.60;;;;;;;8.16;100.00;99522.63;4991588;28;20287;-45
2023/10/21 10:07:24;;;;;;;16.17;10.07;;;;;;;8.09;100.00;99510.53;4991671;28;20717;-47
2023/10/21 10:09:51;;;;;;;14.15;9.60;;;;;;;8.15;100.00;99526.22;4992289;28;20173;-44
2023/10/21 10:12:25;;;;;;;13.18;9.25;;;;;;;8.19;100.00;99516.25;4992071;28;20177;-44
2023/10/21 10:14:53;;;;;;;18.00;9.68;;;;;;;8.19;100.00;99522.47;4979036;28;20209;-43
2023/10/21 10:17:58;;;;;;;17.27;9.95;;;;;;;8.25;100.00;99516.81;4992245;28;20200;-45
2023/10/21 10:20:26;;;;;;;17.83;9.30;;;;;;;8.23;100.00;99529.38;4916725;29;20695;-45
2023/10/21 10:23:11;;;;;;;15.00;9.50;;;;;;;8.32;100.00;99521.84;4913297;29;20192;-45
2023/10/21 10:25:46;;;;;;;14.55;9.75;;;;;;;8.42;100.00;99528.50;4962957;28;20750;-45
2023/10/21 10:28:25;;;;;;;15.07;9.63;;;;;;;8.30;100.00;99529.94;4991711;28;20640;-45
2023/10/21 10:30:51;;;;;;;14.18;9.02;;;;;;;8.33;100.00;99537.81;4990044;28;20203;-44
2023/10/21 10:33:22;;;;;;;12.05;8.45;;;;;;;8.41;100.00;99540.97;4991359;28;20840;-45
2023/10/21 10:35:51;;;;;;;13.00;9.10;;;;;;;8.35;100.00;99543.03;4991542;28;20213;-48
2023/10/21 10:38:32;;;;;;;12.23;8.73;;;;;;;8.38;100.00;99542.91;4991696;28;20252;-45
2023/10/21 10:41:09;;;;;;;11.98;8.70;;;;;;;8.43;100.00;99547.09;4991442;28;20560;-45
2023/10/21 10:43:39;;;;;;;12.65;8.75;;;;;;;8.54;100.00;99549.22;4972901;28;20263;-45
2023/10/21 10:46:07;;;;;;;13.48;8.75;;;;;;;8.50;100.00;99544.13;4991269;28;20654;-44
2023/10/21 10:48:34;;;;;;;15.70;9.63;;;;;;;8.49;100.00;99550.41;4993619;23;20862;-42
2023/10/21 10:51:06;;;;;;;13.38;9.30;;;;;;;8.52;100.00;99547.56;4992627;28;20205;-41
2023/10/21 10:53:34;;;;;;;11.98;9.50;;;;;;;8.51;100.00;99549.38;4977621;28;20620;-43
2023/10/21 10:55:59;;;;;;;13.65;9.70;;;;;;;8.54;100.00;99556.38;4973098;28;20218;-45
2023/10/21 10:58:28;;;;;;;15.50;10.02;;;;;;;8.55;100.00;99553.63;4973114;28;20316;-43
2023/10/21 11:00:53;;;;;;;14.20;9.88;;;;;;;8.55;100.00;99566.97;4990753;28;20738;-42
2023/10/21 11:03:27;;;;;;;13.35;9.98;;;;;;;8.56;100.00;99568.69;4992498;28;20264;-43
2023/10/21 11:05:55;;;;;;;14.82;10.05;;;;;;;8.54;100.00;99567.06;4992630;28;20718;-44
2023/10/21 11:08:21;;;;;;;14.23;9.68;;;;;;;8.57;100.00;99574.91;4974793;28;20189;-44
2023/10/21 11:10:47;;;;;;;11.77;9.02;;;;;;;8.58;100.00;99569.50;4974719;28;20199;-45
2023/10/21 11:13:12;;;;;;;17.65;11.07;;;;;;;8.56;100.00;99571.38;4992268;28;20177;-45
2023/10/21 11:15:44;;;;;;;16.52;11.95;;;;;;;8.58;100.00;99572.16;4992300;28;20247;-44
2023/10/21 11:18:11;;;;;;;15.10;11.02;;;;;;;8.59;100.00;99573.00;4975138;28;20177;-45
2023/10/21 11:20:53;;;;;;;15.00;10.77;;;;;;;8.59;100.00;99573.00;4992142;28;20173;-43
2023/10/21 11:23:19;;;;;;;13.35;10.07;;;;;;;8.63;100.00;99586.13;4991827;28;20519;-42
2023/10/21 11:25:50;;;;;;;15.30;11.05;;;;;;;8.61;100.00;99582.66;4992096;28;20618;-42
2023/10/21 11:28:16;;;;;;;15.93;10.73;;;;;;;8.66;100.00;99594.00;4992345;28;20173;-43